Time,TemperatureF,DewpointF,PressureIn,WindDirection,WindDirectionDegrees,WindSpeedMPH,WindSpeedGustMPH,Humidity,HourlyPrecipIn,Conditions,Clouds,dailyrainin,SoftwareType,DateUTC
2014-01-25 00:09:00,14.7,2.0,29.81,SW,217,11.0,29.0,58,0.00,,,0.01,weatherlink.com 1.10,2014-01-25 05:09:00,
2014-01-25 00:25:00,14.7,2.0,29.80,SSW,200,17.0,24.0,57,0.00,,,0.01,weatherlink.com 1.10,2014-01-25 05:25:00,
2014-01-25 00:40:00,14.6,2.0,29.79,South,183,12.0,25.0,57,0.00,,,0.01,weatherlink.com 1.10,2014-01-25 05:40:00,
2014-01-25 00:56:00,14.6,2.0,29.79,SSW,196,17.0,24.0,57,0.00,,,0.01,weatherlink.com 1.10,2014-01-25 05:56:00,
2014-01-25 01:10:00,14.6,2.0,29.77,SSW,193,10.0,22.0,58,0.00,,,0.01,weatherlink.com 1.10,2014-01-25 06:10:00,
2014-01-25 01:25:00,14.7,3.0,29.76,South,184,11.0,19.0,59,0.00,,,0.01,weatherlink.com 1.10,2014-01-25 06:25:00,
2014-01-25 01:41:00,14.9,3.0,29.76,South,184,12.0,19.0,59,0.00,,,0.01,weatherlink.com 1.10,2014-01-25 06:41:00,
2014-01-25 01:56:00,15.1,3.0,29.75,South,178,15.0,21.0,59,0.00,,,0.01,weatherlink.com 1.10,2014-01-25 06:56:00,
2014-01-25 02:11:00,15.4,3.0,29.74,South,174,15.0,22.0,57,0.00,,,0.01,weatherlink.com 1.10,2014-01-25 07:11:00,
2014-01-25 02:26:00,15.7,2.0,29.74,South,190,13.0,23.0,55,0.00,,,0.01,weatherlink.com 1.10,2014-01-25 07:26:00,
2014-01-25 02:41:00,15.9,2.0,29.73,South,181,13.0,21.0,55,0.00,,,0.01,weatherlink.com 1.10,2014-01-25 07:41:00,
2014-01-25 02:57:00,16.0,3.0,29.72,SSE,165,17.0,17.0,56,0.00,,,0.01,weatherlink.com 1.10,2014-01-25 07:57:00,
2014-01-25 03:10:00,16.2,3.0,29.71,South,190,17.0,23.0,55,0.00,,,0.01,weatherlink.com 1.10,2014-01-25 08:10:00,
2014-01-25 03:26:00,16.2,3.0,29.69,SSW,209,11.0,24.0,55,0.00,,,0.01,weatherlink.com 1.10,2014-01-25 08:26:00,
2014-01-25 03:41:00,16.4,2.0,29.67,SW,217,10.0,29.0,54,0.00,,,0.01,weatherlink.com 1.10,2014-01-25 08:41:00,
2014-01-25 03:56:00,16.4,3.0,29.67,SSW,195,13.0,22.0,56,0.00,,,0.01,weatherlink.com 1.10,2014-01-25 08:56:00,
2014-01-25 04:11:00,16.3,3.0,29.66,South,191,11.0,20.0,55,0.00,,,0.01,weatherlink.com 1.10,2014-01-25 09:11:00,
2014-01-25 04:27:00,16.3,4.0,29.65,South,184,10.0,19.0,59,0.00,,,0.01,weatherlink.com 1.10,2014-01-25 09:27:00,
2014-01-25 04:41:00,16.5,4.0,29.65,SSW,203,11.0,24.0,57,0.00,,,0.01,weatherlink.com 1.10,2014-01-25 09:41:00,
2014-01-25 04:57:00,16.7,4.0,29.63,SSW,213,18.0,19.0,57,0.00,,,0.01,weatherlink.com 1.10,2014-01-25 09:57:00,
2014-01-25 05:11:00,16.7,4.0,29.63,SW,217,9.0,17.0,58,0.00,,,0.01,weatherlink.com 1.10,2014-01-25 10:11:00,
2014-01-25 05:27:00,16.3,6.0,29.62,SSW,192,15.0,30.0,65,0.00,,,0.01,weatherlink.com 1.10,2014-01-25 10:27:00,
2014-01-25 05:42:00,16.1,8.0,29.61,SW,220,14.0,28.0,69,0.00,,,0.01,weatherlink.com 1.10,2014-01-25 10:42:00,
2014-01-25 05:57:00,15.9,8.0,29.60,SSW,195,13.0,25.0,70,0.00,,,0.01,weatherlink.com 1.10,2014-01-25 10:57:00,
2014-01-25 06:11:00,15.7,8.0,29.59,SSW,196,11.0,26.0,71,0.00,,,0.01,weatherlink.com 1.10,2014-01-25 11:11:00,
2014-01-25 06:27:00,15.6,9.0,29.59,SSW,207,7.0,23.0,75,0.00,,,0.01,weatherlink.com 1.10,2014-01-25 11:27:00,
2014-01-25 06:42:00,15.6,9.0,29.59,SSW,201,16.0,25.0,74,0.00,,,0.01,weatherlink.com 1.10,2014-01-25 11:42:00,
2014-01-25 06:57:00,15.6,9.0,29.58,SSW,192,12.0,24.0,74,0.00,,,0.01,weatherlink.com 1.10,2014-01-25 11:57:00,
2014-01-25 07:11:00,16.1,8.0,29.57,SSW,202,8.0,26.0,71,0.00,,,0.01,weatherlink.com 1.10,2014-01-25 12:11:00,
2014-01-25 07:28:00,16.3,7.0,29.56,South,187,13.0,28.0,67,0.00,,,0.01,weatherlink.com 1.10,2014-01-25 12:28:00,
2014-01-25 07:42:00,16.3,6.0,29.55,SSW,213,19.0,22.0,65,0.00,,,0.01,weatherlink.com 1.10,2014-01-25 12:42:00,
2014-01-25 07:57:00,16.3,6.0,29.55,SSW,212,11.0,26.0,65,0.00,,,0.01,weatherlink.com 1.10,2014-01-25 12:57:00,
2014-01-25 08:12:00,16.6,6.0,29.54,SSW,207,17.0,21.0,63,0.00,,,0.01,weatherlink.com 1.10,2014-01-25 13:12:00,
2014-01-25 08:27:00,17.0,6.0,29.53,South,171,10.0,22.0,62,0.00,,,0.01,weatherlink.com 1.10,2014-01-25 13:27:00,
2014-01-25 08:42:00,17.1,6.0,29.52,SSW,206,11.0,21.0,62,0.00,,,0.01,weatherlink.com 1.10,2014-01-25 13:42:00,
2014-01-25 08:57:00,17.3,6.0,29.52,SSW,203,16.0,26.0,62,0.00,,,0.01,weatherlink.com 1.10,2014-01-25 13:57:00,
2014-01-25 09:12:00,17.6,6.0,29.52,SW,216,15.0,24.0,61,0.00,,,0.01,weatherlink.com 1.10,2014-01-25 14:12:00,
2014-01-25 09:28:00,17.7,6.0,29.51,South,188,18.0,26.0,61,0.00,,,0.01,weatherlink.com 1.10,2014-01-25 14:28:00,
2014-01-25 09:43:00,17.9,6.0,29.50,SSW,197,20.0,26.0,61,0.00,,,0.01,weatherlink.com 1.10,2014-01-25 14:43:00,
2014-01-25 09:58:00,18.1,7.0,29.50,SSW,196,18.0,29.0,61,0.00,,,0.01,weatherlink.com 1.10,2014-01-25 14:58:00,
2014-01-25 10:13:00,18.6,7.0,29.49,SW,220,23.0,24.0,62,0.00,,,0.01,weatherlink.com 1.10,2014-01-25 15:13:00,
2014-01-25 10:28:00,19.1,8.0,29.48,SSW,192,14.0,26.0,63,0.00,,,0.01,weatherlink.com 1.10,2014-01-25 15:28:00,
2014-01-25 10:43:00,19.5,9.0,29.47,SSW,202,17.0,29.0,63,0.00,,,0.01,weatherlink.com 1.10,2014-01-25 15:43:00,
2014-01-25 10:58:00,19.9,8.0,29.46,SSW,193,11.0,26.0,61,0.00,,,0.01,weatherlink.com 1.10,2014-01-25 15:58:00,
2014-01-25 11:13:00,20.5,9.0,29.45,SSW,209,16.0,25.0,62,0.00,,,0.01,weatherlink.com 1.10,2014-01-25 16:13:00,
2014-01-25 11:30:00,20.7,9.0,29.43,SSW,207,13.0,26.0,62,0.00,,,0.01,weatherlink.com 1.10,2014-01-25 16:30:00,
2014-01-25 11:45:00,20.9,10.0,29.42,South,180,17.0,27.0,64,0.00,,,0.01,weatherlink.com 1.10,2014-01-25 16:45:00,
2014-01-25 11:59:00,20.9,10.0,29.41,South,178,21.0,22.0,64,0.00,,,0.01,weatherlink.com 1.10,2014-01-25 16:59:00,
2014-01-25 12:14:00,21.1,11.0,29.40,South,179,12.0,26.0,66,0.00,,,0.01,weatherlink.com 1.10,2014-01-25 17:14:00,
2014-01-25 12:30:00,21.2,12.0,29.39,SSW,209,14.0,22.0,68,0.00,,,0.01,weatherlink.com 1.10,2014-01-25 17:30:00,
2014-01-25 12:43:00,21.2,12.0,29.39,SSW,192,10.0,26.0,68,0.00,,,0.01,weatherlink.com 1.10,2014-01-25 17:43:00,
2014-01-25 12:58:00,21.4,12.0,29.37,SW,217,13.0,21.0,68,0.00,,,0.01,weatherlink.com 1.10,2014-01-25 17:58:00,
2014-01-25 13:15:00,21.8,13.0,29.36,SSW,197,18.0,24.0,69,0.00,,,0.01,weatherlink.com 1.10,2014-01-25 18:15:00,
2014-01-25 13:29:00,21.7,14.0,29.35,SW,220,11.0,20.0,72,0.00,,,0.01,weatherlink.com 1.10,2014-01-25 18:29:00,
2014-01-25 13:44:00,22.1,14.0,29.35,SSW,210,17.0,17.0,72,0.00,,,0.01,weatherlink.com 1.10,2014-01-25 18:44:00,
2014-01-25 13:59:00,22.2,14.0,29.34,SSW,211,15.0,22.0,70,0.00,,,0.01,weatherlink.com 1.10,2014-01-25 18:59:00,
2014-01-25 14:15:00,22.5,15.0,29.33,South,191,8.0,21.0,72,0.00,,,0.01,weatherlink.com 1.10,2014-01-25 19:15:00,
2014-01-25 14:29:00,22.7,15.0,29.32,South,190,10.0,22.0,71,0.00,,,0.01,weatherlink.com 1.10,2014-01-25 19:29:00,
2014-01-25 14:45:00,23.0,15.0,29.32,SSW,203,12.0,22.0,71,0.00,,,0.01,weatherlink.com 1.10,2014-01-25 19:45:00,
2014-01-25 14:59:00,23.3,15.0,29.31,SSW,194,13.0,20.0,70,0.00,,,0.01,weatherlink.com 1.10,2014-01-25 19:59:00,
2014-01-25 15:14:00,23.7,15.0,29.30,South,190,15.0,18.0,69,0.00,,,0.01,weatherlink.com 1.10,2014-01-25 20:14:00,
2014-01-25 15:29:00,24.5,16.0,29.30,SSW,199,8.0,19.0,69,0.00,,,0.01,weatherlink.com 1.10,2014-01-25 20:29:00,
2014-01-25 15:44:00,24.5,15.0,29.30,SSW,193,7.0,18.0,68,0.00,,,0.01,weatherlink.com 1.10,2014-01-25 20:44:00,
2014-01-25 15:59:00,24.5,15.0,29.31,SSW,198,8.0,13.0,68,0.00,,,0.01,weatherlink.com 1.10,2014-01-25 20:59:00,
2014-01-25 16:15:00,24.2,16.0,29.31,SSW,202,7.0,14.0,70,0.00,,,0.01,weatherlink.com 1.10,2014-01-25 21:15:00,
2014-01-25 16:30:00,23.0,16.0,29.31,South,187,12.0,21.0,73,0.00,,,0.01,weatherlink.com 1.10,2014-01-25 21:30:00,
2014-01-25 16:45:00,22.3,16.0,29.31,SSW,208,10.0,19.0,77,0.00,,,0.01,weatherlink.com 1.10,2014-01-25 21:45:00,
2014-01-25 17:00:00,22.2,17.0,29.31,SSW,202,7.0,17.0,80,0.00,,,0.01,weatherlink.com 1.10,2014-01-25 22:00:00,
2014-01-25 17:15:00,21.9,17.0,29.32,South,191,9.0,19.0,81,0.00,,,0.01,weatherlink.com 1.10,2014-01-25 22:15:00,
2014-01-25 17:30:00,21.5,17.0,29.32,SSW,199,12.0,18.0,84,0.00,,,0.01,weatherlink.com 1.10,2014-01-25 22:30:00,
2014-01-25 17:46:00,21.3,18.0,29.32,SSW,207,10.0,17.0,86,0.00,,,0.01,weatherlink.com 1.10,2014-01-25 22:46:00,
2014-01-25 18:01:00,21.5,18.0,29.32,SSW,195,8.0,18.0,86,0.00,,,0.01,weatherlink.com 1.10,2014-01-25 23:01:00,
2014-01-25 18:16:00,21.5,18.0,29.33,SSW,202,11.0,17.0,87,0.00,,,0.00,weatherlink.com 1.10,2014-01-25 23:16:00,
2014-01-25 18:31:00,21.5,19.0,29.33,SSW,202,7.0,17.0,88,0.00,,,0.00,weatherlink.com 1.10,2014-01-25 23:31:00,
2014-01-25 18:46:00,21.6,18.0,29.34,SW,214,14.0,17.0,87,0.00,,,0.00,weatherlink.com 1.10,2014-01-25 23:46:00,
2014-01-25 19:01:00,21.6,19.0,29.34,SSW,208,7.0,17.0,89,0.00,,,0.00,weatherlink.com 1.10,2014-01-26 00:01:00,
2014-01-25 19:16:00,21.5,19.0,29.34,South,184,10.0,15.0,89,0.00,,,0.00,weatherlink.com 1.10,2014-01-26 00:16:00,
2014-01-25 19:31:00,21.6,19.0,29.34,SSW,202,6.0,14.0,89,0.00,,,0.00,weatherlink.com 1.10,2014-01-26 00:31:00,
2014-01-25 19:46:00,21.8,19.0,29.34,South,178,7.0,16.0,88,0.00,,,0.00,weatherlink.com 1.10,2014-01-26 00:46:00,
2014-01-25 20:01:00,21.8,19.0,29.35,South,188,6.0,11.0,89,0.00,,,0.00,weatherlink.com 1.10,2014-01-26 01:01:00,
2014-01-25 20:16:00,19.9,17.0,29.39,WNW,290,8.0,21.0,89,0.00,,,0.00,weatherlink.com 1.10,2014-01-26 01:16:00,
2014-01-25 20:31:00,18.7,17.0,29.40,WSW,258,4.0,13.0,91,0.00,,,0.00,weatherlink.com 1.10,2014-01-26 01:31:00,
2014-01-25 20:46:00,18.7,17.0,29.41,NW,323,7.0,11.0,91,0.00,,,0.00,weatherlink.com 1.10,2014-01-26 01:46:00,
2014-01-25 21:01:00,17.3,15.0,29.43,NW,311,16.0,26.0,90,0.00,,,0.00,weatherlink.com 1.10,2014-01-26 02:01:00,
2014-01-25 21:16:00,16.1,14.0,29.44,NW,318,13.0,18.0,90,0.00,,,0.00,weatherlink.com 1.10,2014-01-26 02:16:00,
2014-01-25 21:33:00,15.3,13.0,29.46,NNW,333,10.0,20.0,90,0.00,,,0.00,weatherlink.com 1.10,2014-01-26 02:33:00,
2014-01-25 21:48:00,15.1,13.0,29.46,WNW,297,10.0,17.0,90,0.00,,,0.00,weatherlink.com 1.10,2014-01-26 02:48:00,
2014-01-25 22:02:00,14.8,12.0,29.47,NW,304,12.0,12.0,90,0.00,,,0.00,weatherlink.com 1.10,2014-01-26 03:02:00,
2014-01-25 22:17:00,14.2,12.0,29.49,NW,308,12.0,18.0,90,0.00,,,0.00,weatherlink.com 1.10,2014-01-26 03:17:00,
2014-01-25 22:32:00,13.4,11.0,29.50,WNW,299,10.0,23.0,89,0.00,,,0.00,weatherlink.com 1.10,2014-01-26 03:32:00,
2014-01-25 22:47:00,13.1,10.0,29.51,NW,320,5.0,25.0,88,0.00,,,0.00,weatherlink.com 1.10,2014-01-26 03:47:00,
2014-01-25 23:02:00,12.1,9.0,29.53,WNW,288,8.0,22.0,87,0.00,,,0.00,weatherlink.com 1.10,2014-01-26 04:02:00,
2014-01-25 23:17:00,11.9,9.0,29.53,WNW,284,9.0,19.0,86,0.00,,,0.00,weatherlink.com 1.10,2014-01-26 04:17:00,
2014-01-25 23:32:00,10.8,7.0,29.54,West,271,9.0,18.0,85,0.00,,,0.00,weatherlink.com 1.10,2014-01-26 04:32:00,
2014-01-25 23:48:00,10.2,6.0,29.55,WSW,246,12.0,17.0,84,0.00,,,0.00,weatherlink.com 1.10,2014-01-26 04:48:00,